Time;durP1;ratioP1;P1;durP2;ratioP2;P2;SDS_P1;SDS_P2;PMS_P1;PMS_P2;Temp;Humidity;BMP_temperature;BMP_pressure;BME280_temperature;BME280_humidity;BME280_pressure;Samples;Min_cycle;Max_cycle;Signal;HPM_P1;HPM_P2
2023/04/27 00:01:21;;;;;;;1.20;1.20;;;10.10;99.90;;;;;;5072405;28;20223;-64
2023/04/27 00:03:49;;;;;;;0.90;0.90;;;10.00;99.90;;;;;;5073359;28;20207;-64
2023/04/27 00:06:16;;;;;;;0.87;0.87;;;10.00;99.90;;;;;;5072664;28;20238;-64
2023/04/27 00:08:44;;;;;;;1.00;1.00;;;10.10;99.90;;;;;;5075705;28;20209;-67
2023/04/27 00:11:11;;;;;;;0.83;0.83;;;10.10;99.90;;;;;;5080646;28;20246;-70
2023/04/27 00:13:38;;;;;;;0.90;0.90;;;10.00;99.90;;;;;;5084068;28;20230;-66
2023/04/27 00:16:05;;;;;;;0.80;0.80;;;10.00;99.90;;;;;;5089003;28;20248;-66
2023/04/27 00:18:32;;;;;;;0.80;0.80;;;9.90;99.90;;;;;;5086171;28;20266;-65
2023/04/27 00:20:59;;;;;;;0.97;0.97;;;9.90;99.90;;;;;;5084484;28;20250;-65
2023/04/27 00:23:26;;;;;;;0.90;0.90;;;9.90;99.90;;;;;;5087366;28;20246;-65
2023/04/27 00:25:55;;;;;;;0.80;0.80;;;9.90;99.90;;;;;;5087631;28;20209;-66
2023/04/27 00:28:21;;;;;;;0.80;0.80;;;9.90;99.90;;;;;;5083501;28;20268;-64
2023/04/27 00:30:48;;;;;;;0.90;0.90;;;9.80;99.90;;;;;;5074333;28;20233;-65
2023/04/27 00:33:17;;;;;;;0.90;0.90;;;9.80;99.90;;;;;;5074477;28;20204;-66
2023/04/27 00:35:43;;;;;;;0.70;0.70;;;9.70;99.90;;;;;;5073727;28;20291;-64
2023/04/27 00:38:11;;;;;;;1.10;1.00;;;9.70;99.90;;;;;;5073286;28;20302;-66
2023/04/27 00:40:37;;;;;;;1.23;0.90;;;9.70;99.90;;;;;;5072673;28;20211;-64
2023/04/27 00:43:06;;;;;;;1.00;1.00;;;9.70;99.90;;;;;;5075148;28;20229;-64
2023/04/27 00:45:35;;;;;;;1.00;1.00;;;9.60;99.90;;;;;;5077236;28;20293;-65
2023/04/27 00:48:02;;;;;;;0.93;0.93;;;9.50;99.90;;;;;;5077662;28;20205;-64
2023/04/27 00:50:29;;;;;;;0.90;0.90;;;9.50;99.90;;;;;;5076208;28;20207;-66
2023/04/27 00:52:56;;;;;;;0.80;0.80;;;9.50;99.90;;;;;;5076684;28;20217;-65
2023/04/27 00:55:24;;;;;;;0.90;0.90;;;9.50;99.90;;;;;;5074206;28;20213;-64
2023/04/27 00:57:51;;;;;;;1.10;1.00;;;9.40;99.90;;;;;;5072578;28;20697;-64
2023/04/27 01:00:19;;;;;;;0.90;0.90;;;9.40;99.90;;;;;;5071593;28;20217;-65
2023/04/27 01:02:47;;;;;;;1.00;1.00;;;9.40;99.90;;;;;;5066680;28;20237;-65
2023/04/27 01:05:14;;;;;;;0.87;0.87;;;9.30;99.90;;;;;;5071509;28;20207;-66
2023/04/27 01:07:41;;;;;;;0.90;0.90;;;9.30;99.90;;;;;;5072099;28;20211;-65
2023/04/27 01:10:09;;;;;;;0.80;0.80;;;9.30;99.90;;;;;;5070239;28;20678;-66
2023/04/27 01:12:36;;;;;;;0.93;0.80;;;9.30;99.90;;;;;;5071702;28;20594;-66
2023/04/27 01:15:03;;;;;;;0.87;0.87;;;9.40;99.90;;;;;;5072506;28;20213;-66
2023/04/27 01:17:31;;;;;;;0.83;0.83;;;9.30;99.90;;;;;;5072317;28;20245;-66
2023/04/27 01:19:59;;;;;;;0.90;0.90;;;9.40;99.90;;;;;;5070931;28;20583;-65
2023/04/27 01:22:25;;;;;;;0.83;0.83;;;9.40;99.90;;;;;;5078285;28;20280;-65
2023/04/27 01:24:54;;;;;;;1.00;1.00;;;9.40;99.90;;;;;;5071903;28;20208;-66
2023/04/27 01:27:21;;;;;;;0.90;0.90;;;9.40;99.90;;;;;;5072068;28;20578;-67
2023/04/27 01:29:48;;;;;;;0.90;0.90;;;9.40;99.90;;;;;;5079112;28;20203;-65
2023/04/27 01:32:14;;;;;;;1.00;1.00;;;9.30;99.90;;;;;;5073976;28;20228;-65
2023/04/27 01:34:41;;;;;;;1.50;1.00;;;9.30;99.90;;;;;;5071293;28;20274;-64
2023/04/27 01:37:08;;;;;;;0.97;0.97;;;9.20;99.90;;;;;;5070988;28;20203;-64
2023/04/27 01:39:35;;;;;;;1.20;1.20;;;9.10;99.90;;;;;;5070647;28;20211;-65
2023/04/27 01:42:04;;;;;;;1.00;1.00;;;9.10;99.90;;;;;;5070762;28;20238;-64
2023/04/27 01:44:31;;;;;;;0.80;0.80;;;9.10;99.90;;;;;;5071757;28;20671;-65
2023/04/27 01:46:57;;;;;;;1.00;1.00;;;9.20;99.90;;;;;;5074865;28;20207;-64
2023/04/27 01:49:24;;;;;;;0.90;0.90;;;9.20;99.90;;;;;;5074044;28;20209;-64
2023/04/27 01:51:51;;;;;;;0.95;0.95;;;9.30;99.90;;;;;;5074374;28;20224;-65
2023/04/27 01:54:18;;;;;;;0.90;0.90;;;9.30;99.90;;;;;;5074953;28;20207;-64
2023/04/27 01:56:45;;;;;;;0.80;0.80;;;9.30;99.90;;;;;;5077725;28;20202;-65
2023/04/27 01:59:13;;;;;;;1.00;1.00;;;9.30;99.90;;;;;;5080911;28;20663;-66
2023/04/27 02:01:39;;;;;;;1.07;1.07;;;9.30;99.90;;;;;;5076987;28;20295;-66
2023/04/27 02:04:06;;;;;;;0.90;0.90;;;9.30;99.90;;;;;;5083738;28;20701;-66
2023/04/27 02:06:33;;;;;;;1.10;1.10;;;9.30;99.90;;;;;;5082052;28;20211;-66
2023/04/27 02:09:00;;;;;;;1.20;1.20;;;9.30;99.90;;;;;;5073969;28;20278;-65
2023/04/27 02:11:27;;;;;;;0.80;0.80;;;9.30;99.90;;;;;;5073247;28;20784;-66
2023/04/27 02:13:54;;;;;;;0.93;0.93;;;9.30;99.90;;;;;;5074391;28;20214;-66
2023/04/27 02:16:22;;;;;;;0.93;0.93;;;9.30;99.90;;;;;;5074020;28;20219;-64
2023/04/27 02:18:49;;;;;;;1.00;1.00;;;9.30;99.90;;;;;;5074019;28;20191;-64
2023/04/27 02:21:16;;;;;;;0.90;0.90;;;9.30;99.90;;;;;;5073918;28;20231;-64
2023/04/27 02:23:43;;;;;;;0.90;0.90;;;9.40;99.90;;;;;;5073730;28;20238;-65
2023/04/27 02:26:16;;;;;;;0.73;0.73;;;9.30;99.90;;;;;;5074122;28;20207;-66
2023/04/27 02:28:43;;;;;;;0.93;0.93;;;9.40;99.90;;;;;;5074388;28;20237;-65
2023/04/27 02:31:11;;;;;;;1.00;1.00;;;9.30;99.90;;;;;;5072951;28;20314;-66
2023/04/27 02:33:39;;;;;;;0.80;0.80;;;9.30;99.90;;;;;;5076837;28;20207;-65
2023/04/27 02:36:06;;;;;;;1.20;1.07;;;9.30;99.90;;;;;;5074400;28;20298;-65
2023/04/27 02:38:34;;;;;;;1.00;1.00;;;9.40;99.90;;;;;;5073346;28;20203;-64
2023/04/27 02:41:01;;;;;;;0.90;0.90;;;9.50;99.90;;;;;;5072748;28;20230;-65
2023/04/27 02:43:27;;;;;;;1.00;1.00;;;9.50;99.90;;;;;;5072945;28;20227;-65
2023/04/27 02:45:54;;;;;;;0.90;0.90;;;9.40;99.90;;;;;;5073538;28;20211;-66
2023/04/27 02:48:21;;;;;;;1.10;1.00;;;9.50;99.90;;;;;;5074093;28;20234;-64
2023/04/27 02:50:49;;;;;;;0.83;0.83;;;9.50;99.90;;;;;;5072740;28;20242;-66
2023/04/27 02:53:16;;;;;;;0.90;0.90;;;9.50;99.90;;;;;;5073508;28;20200;-64
2023/04/27 02:55:47;;;;;;;0.90;0.90;;;9.70;99.90;;;;;;5072623;28;20596;-66
2023/04/27 02:58:14;;;;;;;0.80;0.80;;;9.60;99.90;;;;;;5072861;28;20234;-65
2023/04/27 03:00:40;;;;;;;0.98;0.90;;;9.50;99.90;;;;;;5072237;28;20200;-65
2023/04/27 03:03:08;;;;;;;1.00;1.00;;;9.50;99.90;;;;;;5072759;28;20574;-65
2023/04/27 03:05:36;;;;;;;1.37;0.80;;;9.50;99.90;;;;;;5072900;28;20207;-64
2023/04/27 03:08:04;;;;;;;0.80;0.80;;;9.50;99.90;;;;;;5073030;28;20757;-66
2023/04/27 03:10:31;;;;;;;1.00;1.00;;;9.50;99.90;;;;;;5071996;28;20578;-66
2023/04/27 03:12:58;;;;;;;0.90;0.90;;;9.50;99.90;;;;;;5072546;28;20199;-65
2023/04/27 03:15:25;;;;;;;1.00;1.00;;;9.50;99.90;;;;;;5073188;28;20243;-65
2023/04/27 03:17:52;;;;;;;0.80;0.80;;;9.50;99.90;;;;;;5073209;28;20582;-65
2023/04/27 03:20:19;;;;;;;0.80;0.80;;;9.50;99.90;;;;;;5072145;28;20213;-66
2023/04/27 03:22:46;;;;;;;1.17;1.00;;;9.50;99.90;;;;;;5072906;28;20231;-66
2023/04/27 03:25:14;;;;;;;0.80;0.80;;;9.50;99.90;;;;;;5072521;28;20250;-66
2023/04/27 03:27:42;;;;;;;1.13;1.13;;;9.50;99.90;;;;;;5072641;28;20202;-66
2023/04/27 03:30:10;;;;;;;1.07;1.00;;;9.50;99.90;;;;;;5071397;28;20199;-65
2023/04/27 03:32:37;;;;;;;1.20;1.20;;;9.50;99.90;;;;;;5072936;28;20223;-65
2023/04/27 03:35:04;;;;;;;1.00;1.00;;;9.50;99.90;;;;;;5072878;28;20199;-65
2023/04/27 03:37:31;;;;;;;0.90;0.90;;;9.50;99.90;;;;;;5072874;28;20207;-65
2023/04/27 03:39:58;;;;;;;0.70;0.70;;;9.50;99.90;;;;;;5071676;28;20211;-65
2023/04/27 03:42:26;;;;;;;1.47;1.00;;;9.50;99.90;;;;;;5072267;28;20227;-66
2023/04/27 03:44:53;;;;;;;1.00;1.00;;;9.50;99.90;;;;;;5073026;28;20769;-65
2023/04/27 03:47:20;;;;;;;1.00;1.00;;;9.40;99.90;;;;;;5070847;28;20215;-65
2023/04/27 03:49:47;;;;;;;1.03;1.00;;;9.40;99.90;;;;;;5070311;28;20306;-65
2023/04/27 03:52:14;;;;;;;0.90;0.90;;;9.40;99.90;;;;;;5071216;28;20216;-65
2023/04/27 03:54:41;;;;;;;1.00;1.00;;;9.40;99.90;;;;;;5071542;28;20257;-66
2023/04/27 03:57:08;;;;;;;0.83;0.83;;;9.40;99.90;;;;;;5076386;28;20207;-66
2023/04/27 03:59:36;;;;;;;1.00;1.00;;;9.40;99.90;;;;;;5077557;28;20290;-65
2023/04/27 04:02:04;;;;;;;0.90;0.90;;;9.40;99.90;;;;;;5071005;28;20238;-66
2023/04/27 04:04:31;;;;;;;1.45;1.23;;;9.40;99.90;;;;;;5070558;28;20227;-65
2023/04/27 04:06:57;;;;;;;0.90;0.90;;;9.40;99.90;;;;;;5070389;28;20664;-65
2023/04/27 04:09:24;;;;;;;1.10;1.10;;;9.40;99.90;;;;;;5074524;28;20209;-64
2023/04/27 04:11:52;;;;;;;1.00;1.00;;;9.40;99.90;;;;;;5078746;28;20261;-67
2023/04/27 04:14:18;;;;;;;1.00;1.00;;;9.40;99.90;;;;;;5076067;28;20199;-66
2023/04/27 04:16:46;;;;;;;0.93;0.93;;;9.50;99.90;;;;;;5074846;28;20225;-64
2023/04/27 04:19:13;;;;;;;0.73;0.73;;;9.50;99.90;;;;;;5072213;28;20225;-65
2023/04/27 04:21:40;;;;;;;0.90;0.90;;;9.50;99.90;;;;;;5071942;28;20223;-65
2023/04/27 04:24:09;;;;;;;1.00;1.00;;;9.50;99.90;;;;;;5065573;28;20230;-64
2023/04/27 04:26:36;;;;;;;1.57;1.00;;;9.60;99.90;;;;;;5069471;28;20631;-65
2023/04/27 04:29:03;;;;;;;0.90;0.90;;;9.60;99.90;;;;;;5071819;28;20690;-66
2023/04/27 04:31:32;;;;;;;0.83;0.83;;;9.60;99.90;;;;;;5072730;28;20629;-65
2023/04/27 04:34:00;;;;;;;1.00;1.00;;;9.60;99.90;;;;;;5071162;28;20203;-64
2023/04/27 04:36:27;;;;;;;1.30;1.30;;;9.60;99.90;;;;;;5091174;28;20198;-65
2023/04/27 04:38:55;;;;;;;0.90;0.90;;;9.60;99.90;;;;;;5092566;28;20210;-64
2023/04/27 04:41:23;;;;;;;1.10;1.10;;;9.60;99.90;;;;;;5073120;28;20231;-64
2023/04/27 04:43:50;;;;;;;0.90;0.90;;;9.60;99.90;;;;;;5052012;28;20227;-64
2023/04/27 04:46:18;;;;;;;0.90;0.90;;;9.60;99.90;;;;;;5057171;28;20659;-65
2023/04/27 04:48:45;;;;;;;0.80;0.80;;;9.60;99.90;;;;;;5051532;28;20304;-64
2023/04/27 04:51:13;;;;;;;1.20;1.20;;;9.60;99.90;;;;;;5050524;28;20224;-65
2023/04/27 04:53:41;;;;;;;0.90;0.90;;;9.60;99.90;;;;;;5051751;28;20204;-65
2023/04/27 04:56:11;;;;;;;0.90;0.90;;;9.60;99.90;;;;;;5052363;28;20644;-64
2023/04/27 04:58:38;;;;;;;1.10;1.10;;;9.60;99.90;;;;;;5057375;28;20207;-64
2023/04/27 05:01:05;;;;;;;1.00;1.00;;;9.60;99.90;;;;;;5062120;28;20214;-64
2023/04/27 05:03:32;;;;;;;0.90;0.90;;;9.70;99.90;;;;;;5085110;28;20223;-65
2023/04/27 05:05:59;;;;;;;1.37;0.90;;;9.80;99.90;;;;;;5072094;28;20207;-63
2023/04/27 05:08:27;;;;;;;1.00;1.00;;;9.80;99.90;;;;;;5074781;28;20203;-65
2023/04/27 05:10:55;;;;;;;0.90;0.90;;;9.90;99.90;;;;;;5064795;28;20227;-65
2023/04/27 05:13:23;;;;;;;1.00;1.00;;;9.90;99.90;;;;;;5052927;28;20204;-63
2023/04/27 05:15:50;;;;;;;0.80;0.80;;;9.90;99.90;;;;;;5064247;28;20265;-65
2023/04/27 05:18:17;;;;;;;1.15;1.15;;;9.90;99.90;;;;;;5065693;28;20207;-64
2023/04/27 05:20:45;;;;;;;0.98;0.98;;;9.90;99.90;;;;;;5069936;28;20230;-64
2023/04/27 05:23:12;;;;;;;0.90;0.90;;;9.90;99.90;;;;;;5071282;28;20864;-63
2023/04/27 05:25:41;;;;;;;1.03;1.03;;;10.00;99.90;;;;;;5074546;28;20208;-64
2023/04/27 05:28:09;;;;;;;1.00;1.00;;;10.10;99.90;;;;;;5075385;28;20203;-64
2023/04/27 05:30:36;;;;;;;1.10;1.10;;;10.10;99.90;;;;;;5070543;28;20194;-65
2023/04/27 05:33:04;;;;;;;0.90;0.90;;;10.10;99.90;;;;;;5071185;28;20230;-64
2023/04/27 05:35:31;;;;;;;1.20;1.10;;;10.20;99.90;;;;;;5073456;28;20211;-64
2023/04/27 05:37:58;;;;;;;1.03;1.03;;;10.20;99.90;;;;;;5084415;28;20272;-65
2023/04/27 05:40:25;;;;;;;1.10;1.10;;;10.30;99.90;;;;;;5073677;28;20209;-65
2023/04/27 05:42:53;;;;;;;1.00;1.00;;;10.30;99.90;;;;;;5067797;28;20212;-64
2023/04/27 05:45:20;;;;;;;0.90;0.90;;;10.40;99.90;;;;;;5073428;28;20226;-65
2023/04/27 05:47:47;;;;;;;1.03;1.00;;;10.40;99.90;;;;;;5074843;28;20282;-65
2023/04/27 05:50:14;;;;;;;0.97;0.97;;;10.40;99.90;;;;;;5072203;28;20226;-64
2023/04/27 05:52:41;;;;;;;1.10;1.10;;;10.50;99.90;;;;;;5084551;28;20223;-65
2023/04/27 05:55:08;;;;;;;1.20;1.10;;;10.50;99.90;;;;;;5073661;28;20199;-64
2023/04/27 05:57:35;;;;;;;1.00;1.00;;;10.50;99.90;;;;;;5065907;28;20204;-66
2023/04/27 06:00:07;;;;;;;1.13;1.13;;;10.60;99.90;;;;;;5054126;28;20204;-64
2023/04/27 06:02:34;;;;;;;0.80;0.80;;;10.70;99.90;;;;;;5053487;28;20699;-66
2023/04/27 06:05:01;;;;;;;1.17;1.17;;;10.70;99.90;;;;;;5054126;28;20231;-64
2023/04/27 06:07:28;;;;;;;1.00;1.00;;;10.80;99.90;;;;;;5054771;28;20204;-65
2023/04/27 06:09:55;;;;;;;1.00;1.00;;;10.90;99.90;;;;;;5053168;28;20578;-66
2023/04/27 06:12:21;;;;;;;1.00;1.00;;;10.90;99.90;;;;;;5054563;28;20338;-64
2023/04/27 06:14:48;;;;;;;1.00;1.00;;;10.90;99.90;;;;;;5054450;28;20204;-66
2023/04/27 06:17:16;;;;;;;1.20;1.20;;;11.00;99.90;;;;;;5055611;28;20212;-66
2023/04/27 06:19:43;;;;;;;1.10;1.10;;;11.10;99.90;;;;;;5053417;28;20200;-65
2023/04/27 06:22:11;;;;;;;1.43;1.07;;;11.10;99.90;;;;;;5058440;28;20228;-65
2023/04/27 06:24:38;;;;;;;1.30;1.20;;;11.20;99.90;;;;;;5059364;28;20262;-65
2023/04/27 06:27:04;;;;;;;0.97;0.97;;;11.20;99.90;;;;;;5055285;28;20208;-66
2023/04/27 06:29:31;;;;;;;0.90;0.90;;;11.20;99.90;;;;;;5056215;28;20210;-65
2023/04/27 06:31:58;;;;;;;1.00;1.00;;;11.20;99.90;;;;;;5054527;28;20314;-64
2023/04/27 06:34:26;;;;;;;1.27;1.20;;;11.30;99.90;;;;;;5053719;28;20203;-65
2023/04/27 06:36:53;;;;;;;1.17;1.10;;;11.30;99.90;;;;;;5053730;28;20204;-65
2023/04/27 06:39:20;;;;;;;1.10;1.10;;;11.20;99.90;;;;;;5053129;28;20675;-66
2023/04/27 06:41:47;;;;;;;1.10;1.10;;;11.40;99.90;;;;;;5054473;28;20238;-65
2023/04/27 06:44:13;;;;;;;1.20;1.20;;;11.40;99.90;;;;;;5053702;28;20317;-66
2023/04/27 06:46:40;;;;;;;1.40;1.30;;;11.60;99.90;;;;;;5053168;28;20200;-65
2023/04/27 06:49:07;;;;;;;2.63;1.30;;;11.70;99.90;;;;;;5054460;28;20298;-65
2023/04/27 06:51:35;;;;;;;1.00;1.00;;;11.70;99.90;;;;;;5054872;28;20228;-66
2023/04/27 06:54:03;;;;;;;1.07;1.03;;;11.80;99.90;;;;;;5053123;28;20203;-65
2023/04/27 06:56:29;;;;;;;1.40;1.30;;;11.80;99.90;;;;;;5053685;28;20615;-66
2023/04/27 06:58:56;;;;;;;1.93;1.10;;;11.90;99.90;;;;;;5054584;28;20247;-65
2023/04/27 07:01:23;;;;;;;1.30;1.20;;;12.20;99.90;;;;;;5053109;28;20234;-66
2023/04/27 07:03:50;;;;;;;0.97;0.97;;;12.10;99.90;;;;;;5052887;28;20251;-65
2023/04/27 07:06:17;;;;;;;1.20;1.20;;;12.20;99.90;;;;;;5052908;28;20218;-66
2023/04/27 07:08:45;;;;;;;1.10;1.10;;;12.30;99.90;;;;;;5052245;28;20204;-66
2023/04/27 07:11:12;;;;;;;1.00;1.00;;;12.50;99.90;;;;;;5051887;28;20232;-66
2023/04/27 07:13:39;;;;;;;1.00;1.00;;;12.60;99.90;;;;;;5052784;28;20204;-66
2023/04/27 07:16:07;;;;;;;1.00;1.00;;;12.60;99.90;;;;;;5055874;28;20204;-67
2023/04/27 07:18:34;;;;;;;1.30;1.20;;;12.70;99.90;;;;;;5057222;28;20218;-65
2023/04/27 07:21:01;;;;;;;1.17;1.17;;;12.80;99.90;;;;;;5052787;28;20840;-65
2023/04/27 07:23:28;;;;;;;1.00;1.00;;;12.90;99.90;;;;;;5052309;28;20214;-66
2023/04/27 07:25:56;;;;;;;1.50;1.13;;;13.00;99.90;;;;;;5059164;28;20219;-65
2023/04/27 07:28:23;;;;;;;1.03;1.03;;;13.10;99.90;;;;;;5072416;28;20195;-65
2023/04/27 07:30:50;;;;;;;1.30;1.30;;;13.20;99.90;;;;;;5071761;28;20219;-65
2023/04/27 07:33:17;;;;;;;0.90;0.90;;;13.30;99.90;;;;;;5072445;28;20237;-65
2023/04/27 07:35:44;;;;;;;1.00;1.00;;;13.50;99.90;;;;;;5072452;28;20217;-64
2023/04/27 07:38:11;;;;;;;1.10;1.10;;;13.60;99.90;;;;;;5071920;28;20203;-64
2023/04/27 07:40:38;;;;;;;1.20;1.10;;;13.70;99.90;;;;;;5071869;28;20211;-65
2023/04/27 07:43:06;;;;;;;1.20;1.10;;;13.80;99.90;;;;;;5071618;28;20223;-64
2023/04/27 07:45:36;;;;;;;1.37;1.27;;;13.80;99.90;;;;;;5072123;28;20237;-65
2023/04/27 07:48:03;;;;;;;1.13;1.13;;;13.80;99.90;;;;;;5071976;28;20670;-65
2023/04/27 07:50:31;;;;;;;1.57;1.47;;;13.90;99.90;;;;;;5071313;28;20205;-65
2023/04/27 07:52:58;;;;;;;1.40;1.37;;;13.60;99.90;;;;;;5072004;28;20206;-65
2023/04/27 07:55:25;;;;;;;1.50;1.40;;;13.50;99.90;;;;;;5071826;28;20200;-64
2023/04/27 07:57:53;;;;;;;1.20;1.20;;;13.50;99.90;;;;;;5071868;28;20210;-64
2023/04/27 08:00:22;;;;;;;1.43;1.33;;;13.60;99.90;;;;;;5070695;28;20219;-65
2023/04/27 08:02:50;;;;;;;1.33;1.23;;;13.70;99.90;;;;;;5071376;28;20606;-67
2023/04/27 08:05:17;;;;;;;1.30;1.20;;;13.50;99.90;;;;;;5071497;28;20728;-64
2023/04/27 08:07:44;;;;;;;1.67;1.20;;;13.50;99.90;;;;;;5076378;28;20235;-66
2023/04/27 08:10:10;;;;;;;1.10;1.10;;;13.60;99.90;;;;;;5071529;28;20199;-65
2023/04/27 08:12:37;;;;;;;1.20;1.20;;;13.80;99.90;;;;;;5080336;28;20230;-66
2023/04/27 08:15:06;;;;;;;1.10;1.10;;;13.90;99.90;;;;;;5078634;28;20203;-66
2023/04/27 08:17:35;;;;;;;1.00;1.00;;;13.90;99.90;;;;;;5075593;28;20727;-65
2023/04/27 08:20:02;;;;;;;1.30;1.30;;;13.80;99.90;;;;;;5074345;28;20206;-64
2023/04/27 08:22:29;;;;;;;1.33;1.25;;;13.80;99.90;;;;;;5077241;28;20219;-65
2023/04/27 08:24:55;;;;;;;1.10;1.10;;;13.90;99.90;;;;;;5080358;28;20595;-66
2023/04/27 08:27:22;;;;;;;1.30;1.30;;;14.10;99.90;;;;;;5082677;28;20245;-65
2023/04/27 08:29:49;;;;;;;1.20;1.20;;;14.30;99.90;;;;;;5080956;28;20207;-64
2023/04/27 08:32:16;;;;;;;1.70;1.60;;;14.40;99.90;;;;;;5076717;28;20231;-64
2023/04/27 08:34:45;;;;;;;1.70;1.60;;;14.40;99.90;;;;;;5072275;28;20203;-66
2023/04/27 08:37:12;;;;;;;1.60;1.43;;;14.40;99.90;;;;;;5081778;28;20199;-65
2023/04/27 08:39:39;;;;;;;1.50;1.40;;;14.40;99.90;;;;;;5075726;28;20246;-65
2023/04/27 08:42:15;;;;;;;1.43;1.33;;;14.40;99.90;;;;;;5074679;28;20234;-65
2023/04/27 08:44:43;;;;;;;1.20;1.20;;;14.60;99.90;;;;;;5072272;28;20251;-66
2023/04/27 08:47:10;;;;;;;1.23;1.23;;;14.60;99.90;;;;;;5071562;28;20211;-65
2023/04/27 08:49:40;;;;;;;1.20;1.20;;;14.70;99.90;;;;;;5070643;28;20210;-65
2023/04/27 08:52:12;;;;;;;1.60;1.50;;;14.70;99.90;;;;;;5071086;28;20585;-65
2023/04/27 08:54:39;;;;;;;1.03;1.03;;;14.80;99.90;;;;;;5072943;28;20203;-64
2023/04/27 08:57:10;;;;;;;1.40;1.30;;;15.10;99.90;;;;;;5074885;28;20217;-64
2023/04/27 08:59:37;;;;;;;1.73;1.30;;;15.10;99.90;;;;;;5073428;28;20203;-64
2023/04/27 09:02:04;;;;;;;1.17;1.17;;;15.20;99.90;;;;;;5075164;28;20261;-64
2023/04/27 09:04:38;;;;;;;1.00;1.00;;;15.50;99.90;;;;;;5075197;28;20296;-65
2023/04/27 09:07:13;;;;;;;1.60;1.50;;;15.50;99.90;;;;;;5075122;28;20666;-66
2023/04/27 09:09:40;;;;;;;1.00;1.00;;;15.60;99.90;;;;;;5074290;28;20213;-65
2023/04/27 09:12:17;;;;;;;1.20;1.20;;;15.70;99.90;;;;;;5074917;28;20227;-64
2023/04/27 09:14:55;;;;;;;1.95;1.30;;;16.00;99.90;;;;;;5075026;28;20206;-64
2023/04/27 09:17:25;;;;;;;1.40;1.30;;;16.00;99.90;;;;;;5075794;28;20665;-65
2023/04/27 09:19:52;;;;;;;1.20;1.20;;;16.10;99.90;;;;;;5074524;28;20731;-65
2023/04/27 09:22:20;;;;;;;1.05;1.05;;;16.50;99.90;;;;;;5074349;28;20231;-64
2023/04/27 09:24:51;;;;;;;1.20;1.20;;;16.70;99.90;;;;;;5074904;28;20234;-65
2023/04/27 09:27:20;;;;;;;1.20;1.15;;;16.70;99.90;;;;;;5074506;28;20247;-66
2023/04/27 09:29:47;;;;;;;1.25;1.25;;;16.60;99.90;;;;;;5074745;28;20255;-64
2023/04/27 09:32:16;;;;;;;1.30;1.20;;;16.70;99.90;;;;;;5075851;28;20224;-65
2023/04/27 09:34:43;;;;;;;1.27;1.20;;;16.70;99.90;;;;;;5075103;28;20211;-65
2023/04/27 09:37:10;;;;;;;1.30;1.20;;;16.70;99.90;;;;;;5074822;28;20579;-65
2023/04/27 09:39:39;;;;;;;1.33;1.23;;;17.10;99.90;;;;;;5073547;28;20746;-65
2023/04/27 09:42:07;;;;;;;1.40;1.33;;;17.20;99.90;;;;;;5073973;28;20230;-64
2023/04/27 09:44:34;;;;;;;1.60;1.50;;;17.30;99.90;;;;;;5074646;28;20221;-65
2023/04/27 09:47:02;;;;;;;1.20;1.20;;;17.40;99.90;;;;;;5074846;28;20584;-65
2023/04/27 09:49:29;;;;;;;1.00;1.00;;;17.40;99.90;;;;;;5076549;28;20218;-65
2023/04/27 09:51:57;;;;;;;1.00;1.00;;;17.50;99.90;;;;;;5085595;28;20238;-66
2023/04/27 09:54:29;;;;;;;1.10;1.10;;;17.60;99.90;;;;;;5078963;28;20203;-66
2023/04/27 09:57:11;;;;;;;1.00;1.00;;;17.70;99.90;;;;;;5083606;28;20643;-66
2023/04/27 10:00:06;;;;;;;1.30;1.30;;;17.80;99.90;;;;;;5079619;28;20250;-69
2023/04/27 10:02:42;;;;;;;1.40;1.30;;;17.70;99.90;;;;;;5080843;28;20223;-65
2023/04/27 10:05:26;;;;;;;1.20;1.20;;;17.80;99.90;;;;;;5079153;28;20227;-65
2023/04/27 10:07:53;;;;;;;1.10;1.10;;;18.00;99.90;;;;;;5076416;28;20207;-66
2023/04/27 10:10:20;;;;;;;1.20;1.20;;;18.30;99.90;;;;;;5078023;28;20208;-65
2023/04/27 10:12:57;;;;;;;1.15;1.15;;;18.40;99.90;;;;;;5076707;28;20231;-66
2023/04/27 10:15:28;;;;;;;1.08;1.08;;;18.40;99.90;;;;;;5074690;28;20205;-66
2023/04/27 10:17:57;;;;;;;1.27;1.20;;;18.40;99.90;;;;;;5074763;28;20207;-65
2023/04/27 10:20:31;;;;;;;1.20;1.20;;;18.60;99.90;;;;;;5075235;28;20207;-65
2023/04/27 10:22:59;;;;;;;1.08;1.08;;;18.80;99.90;;;;;;5074904;28;20207;-67
2023/04/27 10:25:27;;;;;;;1.30;1.20;;;18.60;99.90;;;;;;5080344;28;20266;-66
2023/04/27 10:27:58;;;;;;;1.10;1.10;;;18.40;99.90;;;;;;5093886;28;20294;-65
2023/04/27 10:30:27;;;;;;;1.42;1.20;;;18.50;99.90;;;;;;5091720;28;20221;-68
2023/04/27 10:32:55;;;;;;;1.10;1.10;;;18.70;99.90;;;;;;5084393;28;20204;-65
2023/04/27 10:35:23;;;;;;;2.78;1.10;;;18.50;99.90;;;;;;5086148;28;20271;-65
2023/04/27 10:37:51;;;;;;;1.20;1.10;;;18.40;99.90;;;;;;5086992;28;20270;-66
2023/04/27 10:40:18;;;;;;;0.97;0.97;;;18.60;99.90;;;;;;5086856;28;20210;-64
2023/04/27 10:42:48;;;;;;;1.10;1.00;;;18.70;99.90;;;;;;5077678;28;20227;-65
2023/04/27 10:45:26;;;;;;;1.30;1.20;;;18.80;99.90;;;;;;5076072;28;20227;-65
2023/04/27 10:47:58;;;;;;;0.90;0.90;;;18.90;99.90;;;;;;5076229;28;20309;-66
2023/04/27 10:50:25;;;;;;;0.80;0.80;;;19.10;99.90;;;;;;5078393;28;20276;-66
2023/04/27 10:52:52;;;;;;;0.93;0.93;;;19.20;99.90;;;;;;5076122;28;20199;-66
2023/04/27 10:55:21;;;;;;;1.10;1.10;;;19.30;99.90;;;;;;5075626;28;20195;-65
2023/04/27 10:57:50;;;;;;;1.40;1.30;;;18.90;99.90;;;;;;5074693;28;20203;-64
2023/04/27 11:00:24;;;;;;;1.00;1.00;;;18.70;99.90;;;;;;5064004;28;20215;-65
2023/04/27 11:02:52;;;;;;;1.00;1.00;;;18.70;99.90;;;;;;5063931;28;20223;-66
2023/04/27 11:05:21;;;;;;;1.40;1.30;;;18.80;99.90;;;;;;5067834;28;20273;-65
2023/04/27 11:07:48;;;;;;;1.30;1.20;;;18.80;99.90;;;;;;5051989;28;20207;-65
2023/04/27 11:10:18;;;;;;;1.45;1.30;;;19.10;99.90;;;;;;5050596;28;20208;-64
2023/04/27 11:12:45;;;;;;;1.00;1.00;;;19.10;99.90;;;;;;5050507;28;20263;-65
2023/04/27 11:15:13;;;;;;;1.10;1.00;;;18.80;99.90;;;;;;5050649;28;20200;-65
2023/04/27 11:17:41;;;;;;;0.77;0.77;;;18.90;99.90;;;;;;5049487;28;20290;-64
2023/04/27 11:20:09;;;;;;;1.17;1.10;;;19.00;99.90;;;;;;5050392;28;20211;-65
2023/04/27 11:22:44;;;;;;;1.00;1.00;;;19.40;99.90;;;;;;5050333;28;20227;-64
2023/04/27 11:25:11;;;;;;;1.00;1.00;;;19.40;99.90;;;;;;5050203;28;20249;-65
2023/04/27 11:27:39;;;;;;;1.00;1.00;;;19.70;99.90;;;;;;5050469;28;20204;-66
2023/04/27 11:30:18;;;;;;;0.90;0.90;;;19.60;99.90;;;;;;5049380;28;20212;-65
2023/04/27 11:32:47;;;;;;;0.93;0.93;;;19.70;99.90;;;;;;5067084;28;20245;-65
2023/04/27 11:35:15;;;;;;;1.10;1.10;;;19.90;99.90;;;;;;5072551;28;20207;-65
2023/04/27 11:37:42;;;;;;;1.00;1.00;;;20.00;99.90;;;;;;5070574;28;20741;-65
2023/04/27 11:40:13;;;;;;;0.77;0.77;;;20.00;99.90;;;;;;5070149;28;20203;-64
2023/04/27 11:42:42;;;;;;;0.70;0.70;;;20.10;99.90;;;;;;5068100;28;20262;-65
2023/04/27 11:45:12;;;;;;;0.93;0.93;;;20.30;99.90;;;;;;5072581;28;20257;-65
2023/04/27 11:47:41;;;;;;;0.90;0.90;;;20.60;99.90;;;;;;5072421;28;20217;-65
2023/04/27 11:50:10;;;;;;;0.90;0.90;;;20.40;99.90;;;;;;5071044;28;20755;-65
2023/04/27 11:52:38;;;;;;;1.00;1.00;;;20.50;99.90;;;;;;5072940;28;20231;-64
2023/04/27 11:55:07;;;;;;;0.93;0.93;;;20.50;99.90;;;;;;5072631;28;20274;-65
2023/04/27 11:57:36;;;;;;;0.70;0.70;;;20.70;99.90;;;;;;5073436;28;20199;-64
2023/04/27 12:00:09;;;;;;;0.60;0.60;;;20.80;99.90;;;;;;5071221;28;20211;-64
2023/04/27 12:02:37;;;;;;;0.80;0.80;;;21.00;99.90;;;;;;5071182;28;20231;-65
2023/04/27 12:05:05;;;;;;;0.90;0.90;;;21.10;99.90;;;;;;5070837;28;20233;-65
2023/04/27 12:07:33;;;;;;;0.68;0.68;;;20.90;99.90;;;;;;5072177;28;20242;-64
2023/04/27 12:10:00;;;;;;;0.80;0.80;;;20.80;99.90;;;;;;5071401;28;20294;-65
2023/04/27 12:12:27;;;;;;;0.60;0.60;;;20.80;99.90;;;;;;5071723;28;20223;-64
2023/04/27 12:14:54;;;;;;;0.90;0.90;;;20.50;99.90;;;;;;5072044;28;20211;-64
2023/04/27 12:17:20;;;;;;;0.75;0.75;;;20.50;99.90;;;;;;5072404;28;20199;-65
2023/04/27 12:19:47;;;;;;;0.75;0.75;;;20.70;99.90;;;;;;5071055;28;20207;-65
2023/04/27 12:22:15;;;;;;;0.70;0.70;;;20.80;99.90;;;;;;5071362;28;20227;-64
2023/04/27 12:24:43;;;;;;;0.70;0.70;;;20.70;99.90;;;;;;5071520;28;20574;-65
2023/04/27 12:27:10;;;;;;;0.40;0.40;;;20.90;99.90;;;;;;5071262;28;20227;-64
2023/04/27 12:29:37;;;;;;;0.70;0.70;;;20.90;99.90;;;;;;5072190;28;20305;-64
2023/04/27 12:32:05;;;;;;;0.50;0.50;;;20.60;99.90;;;;;;5070941;28;20317;-64
2023/04/27 12:34:32;;;;;;;0.63;0.63;;;20.60;99.90;;;;;;5070720;28;20666;-64
2023/04/27 12:36:59;;;;;;;1.02;0.63;;;20.70;99.90;;;;;;5071377;28;20235;-65
2023/04/27 12:39:26;;;;;;;0.50;0.50;;;20.80;99.90;;;;;;5070761;28;20214;-65
2023/04/27 12:41:55;;;;;;;0.30;0.30;;;21.00;99.90;;;;;;5072263;28;20239;-65
2023/04/27 12:44:22;;;;;;;0.30;0.30;;;21.00;99.90;;;;;;5073420;28;20727;-65
2023/04/27 12:46:49;;;;;;;0.40;0.40;;;20.90;99.90;;;;;;5071411;28;20249;-64
2023/04/27 12:49:16;;;;;;;0.47;0.47;;;20.70;99.90;;;;;;5070822;28;20629;-65
2023/04/27 12:51:44;;;;;;;0.70;0.70;;;21.00;99.90;;;;;;5071246;28;20313;-65
2023/04/27 12:54:11;;;;;;;0.50;0.50;;;21.10;99.90;;;;;;5071116;28;20670;-65